KLSV/LSV METAR and TAF weather

Enter ICAO airport designator
Station Type Date Time Source
KLSV METAR 2019/08/25 17:58 UTC NOAA

KLSV 251758Z AUTO 13004KT 10SM CLR 35/11 A2997 RMK AO2 SLP120 T03500114 10351 20263 58002 $


Station Type Date Time Source
KLSV Decoded METAR 2019/08/25 17:58 UTC NOAA

Station name not available
Aug 25, 2019 - 01:58 PM EDT / 2019.08.25 1758 UTC
Wind: from the SE (130 degrees) at 5 MPH (4 KT):0
Visibility: 10 mile(s):0
Sky conditions: clear
Temperature: 95.0 F (35.0 C)
Dew Point: 52.5 F (11.4 C)
Relative Humidity: 23%
Pressure (altimeter): 29.97 in. Hg (1014 hPa)
Pressure tendency: 0.01 inches (0.2 hPa) lower than three hours ago
ob: KLSV 251758Z AUTO 13004KT 10SM CLR 35/11 A2997 RMK AO2 SLP120 T03500114 10351 20263 58002
cycle: 18

Station Type Date Time Source
KLSV TAF 2019/08/25 15:57 UTC NOAA

TAF TAF KLSV 251500Z 2515/2621 03007KT 9999 FEW250 QNH2996INS
BECMG 2520/2521 11012G18KT 9999 FEW250 QNH2982INS
BECMG 2603/2604 VRB06KT 9999 FEW250 QNH2983INS
BECMG 2612/2613 04007KT 9999 SCT250 QNH2990INS TX39/2523Z TN27/2612Z

Example: see airport list